Time;durP1;ratioP1;P1;durP2;ratioP2;P2;SDS_P1;SDS_P2;PMS_P1;PMS_P2;Temp;Humidity;BMP_temperature;BMP_pressure;BME280_temperature;BME280_humidity;BME280_pressure;Samples;Min_cycle;Max_cycle;Signal;HPM_P1;HPM_P2
2022/06/22 00:00:51;;;;;;;;;7.00;7.00;;;;;16.74;57.26;99578.94;5075319;28;8854;-64
2022/06/22 00:03:19;;;;;;;;;7.50;6.50;;;;;16.70;57.56;99576.78;5076875;28;8854;-63
2022/06/22 00:05:48;;;;;;;;;5.00;5.00;;;;;16.65;57.36;99582.63;5076765;28;8953;-62
2022/06/22 00:08:16;;;;;;;;;3.75;3.00;;;;;16.59;57.82;99588.72;5077072;28;8862;-62
2022/06/22 00:10:44;;;;;;;;;4.00;4.00;;;;;16.57;57.99;99584.50;5116175;28;8916;-62
2022/06/22 00:13:12;;;;;;;;;5.00;5.00;;;;;16.59;57.34;99583.34;5115952;28;9513;-62
2022/06/22 00:15:39;;;;;;;;;7.00;5.75;;;;;16.62;56.96;99576.78;5117455;28;8836;-62
2022/06/22 00:18:07;;;;;;;;;6.25;6.25;;;;;16.61;57.63;99575.94;5117347;28;8855;-62
2022/06/22 00:20:35;;;;;;;;;3.50;3.00;;;;;16.63;57.49;99556.94;5099071;28;8848;-62
2022/06/22 00:23:03;;;;;;;;;6.00;6.00;;;;;16.63;57.31;99552.38;5096827;28;8838;-62
2022/06/22 00:25:30;;;;;;;;;6.00;6.00;;;;;16.64;57.65;99564.00;5096210;28;9523;-63
2022/06/22 00:27:59;;;;;;;;;4.50;4.50;;;;;16.63;57.61;99551.56;5099473;28;8849;-63
2022/06/22 00:30:26;;;;;;;;;6.75;6.50;;;;;16.55;57.48;99544.34;5117086;28;8851;-63
2022/06/22 00:32:54;;;;;;;;;6.50;6.50;;;;;16.49;57.35;99547.69;5117095;28;8835;-63
2022/06/22 00:35:22;;;;;;;;;6.00;6.00;;;;;16.44;58.10;99544.69;5115548;28;8844;-62
2022/06/22 00:37:50;;;;;;;;;5.00;5.00;;;;;16.38;58.01;99541.81;5114915;28;8835;-63
2022/06/22 00:40:18;;;;;;;;;8.50;4.50;;;;;16.33;57.78;99542.28;5096307;28;8922;-62
2022/06/22 00:42:46;;;;;;;;;6.50;6.50;;;;;16.29;58.40;99540.13;5096350;28;8846;-63
2022/06/22 00:45:13;;;;;;;;;6.50;6.50;;;;;16.23;58.07;99528.19;5096823;28;8920;-63
2022/06/22 00:47:41;;;;;;;;;5.00;5.00;;;;;16.22;58.43;99522.97;5096250;28;8868;-62
2022/06/22 00:50:09;;;;;;;;;3.75;3.75;;;;;16.20;58.49;99514.25;5115621;28;8949;-64
2022/06/22 00:52:37;;;;;;;;;6.00;6.00;;;;;16.20;58.42;99515.06;5116870;28;8824;-63
2022/06/22 00:55:05;;;;;;;;;6.50;6.50;;;;;16.19;57.88;99510.72;5116809;28;8851;-64
2022/06/22 00:57:33;;;;;;;;;6.75;5.50;;;;;16.12;58.51;99513.41;5116826;28;8823;-63
2022/06/22 01:00:01;;;;;;;;;3.75;3.00;;;;;16.03;58.90;99534.06;5113649;28;8912;-63
2022/06/22 01:02:29;;;;;;;;;7.00;6.25;;;;;15.90;58.91;99536.41;5116767;28;8824;-63
2022/06/22 01:04:56;;;;;;;;;6.75;5.00;;;;;15.73;59.26;99540.06;5116316;28;8870;-62
2022/06/22 01:07:24;;;;;;;;;6.00;6.00;;;;;15.58;60.04;99535.47;5116547;28;8886;-64
2022/06/22 01:09:52;;;;;;;;;7.50;7.50;;;;;15.47;60.16;99533.94;5097306;28;8818;-63
2022/06/22 01:12:22;;;;;;;;;7.00;6.50;;;;;15.40;60.05;99542.81;5095961;28;8850;-62
2022/06/22 01:14:51;;;;;;;;;6.50;5.50;;;;;15.31;60.25;99538.38;5095757;28;8853;-63
2022/06/22 01:17:19;;;;;;;;;4.00;4.00;;;;;15.22;60.91;99533.97;5097162;28;8826;-63
2022/06/22 01:19:47;;;;;;;;;5.00;3.25;;;;;15.12;61.03;99533.25;5095460;28;8864;-64
2022/06/22 01:22:15;;;;;;;;;4.00;4.00;;;;;15.01;61.53;99541.59;5095816;28;8837;-62
2022/06/22 01:24:43;;;;;;;;;6.75;6.00;;;;;14.94;61.05;99532.50;5095862;28;8860;-62
2022/06/22 01:27:10;;;;;;;;;4.00;4.00;;;;;14.89;61.37;99522.25;5098608;28;8856;-63
2022/06/22 01:29:38;;;;;;;;;7.00;6.75;;;;;14.88;61.59;99519.72;5116188;28;8857;-62
2022/06/22 01:32:06;;;;;;;;;5.00;4.00;;;;;14.85;61.37;99512.00;5116320;28;8846;-63
2022/06/22 01:34:35;;;;;;;;;3.00;3.00;;;;;14.85;61.56;99517.34;5116028;28;8835;-62
2022/06/22 01:37:03;;;;;;;;;6.00;4.50;;;;;14.83;61.40;99514.00;5114802;28;8956;-62
2022/06/22 01:39:31;;;;;;;;;5.00;5.00;;;;;14.84;61.88;99518.34;5095399;28;8926;-62
2022/06/22 01:41:59;;;;;;;;;6.75;4.00;;;;;14.83;61.35;99514.00;5095375;28;9511;-63
2022/06/22 01:44:26;;;;;;;;;4.00;4.00;;;;;14.81;60.92;99506.09;5095415;28;8830;-62
2022/06/22 01:46:54;;;;;;;;;6.75;5.00;;;;;14.83;61.47;99514.00;5094722;28;8837;-62
2022/06/22 01:49:22;;;;;;;;;6.50;6.00;;;;;14.83;61.44;99512.16;5094211;28;8849;-63
2022/06/22 01:51:50;;;;;;;;;9.75;7.00;;;;;14.85;60.94;99512.00;5094987;28;8841;-64
2022/06/22 01:54:18;;;;;;;;;4.00;4.00;;;;;14.86;60.77;99511.00;5095639;28;8861;-62
2022/06/22 01:56:45;;;;;;;;;3.75;2.50;;;;;14.87;61.14;99500.09;5095507;28;9618;-63
2022/06/22 01:59:15;;;;;;;;;6.00;6.00;;;;;14.86;60.93;99500.28;5113611;28;8816;-62
2022/06/22 02:01:42;;;;;;;;;6.25;5.00;;;;;14.83;61.40;99488.03;5115999;28;8852;-62
2022/06/22 02:04:10;;;;;;;;;8.00;7.00;;;;;14.76;61.21;99499.53;5115805;28;8835;-62
2022/06/22 02:09:23;;;;;;;;;5.50;5.50;;;;;14.56;61.81;99514.19;5114858;28;8812;-62
2022/06/22 02:12:18;;;;;;;;;3.00;3.00;;;;;14.45;62.20;99514.44;5119589;28;8858;-62
2022/06/22 02:14:39;;;;;;;;;5.50;4.50;;;;;14.37;62.18;99517.06;5119900;28;8843;-63
2022/06/22 02:17:07;;;;;;;;;4.00;4.00;;;;;14.27;61.98;99514.47;5118504;28;8828;-62
2022/06/22 02:19:35;;;;;;;;;4.00;4.00;;;;;14.20;62.71;99507.22;5099275;28;8830;-62
2022/06/22 02:22:03;;;;;;;;;0.75;0.75;;;;;14.16;62.57;99512.00;5099309;28;8956;-63
2022/06/22 02:24:31;;;;;;;;;7.50;7.50;;;;;14.13;62.33;99519.50;5099659;28;8830;-62
2022/06/22 02:26:59;;;;;;;;;5.00;5.00;;;;;14.12;62.83;99512.47;5099287;28;9484;-62
2022/06/22 02:29:27;;;;;;;;;6.00;6.00;;;;;14.14;62.61;99515.84;5119086;28;8870;-61
2022/06/22 02:31:55;;;;;;;;;6.00;6.00;;;;;14.14;62.60;99503.28;5119587;28;8812;-64
2022/06/22 02:34:23;;;;;;;;;6.00;4.50;;;;;14.12;62.24;99493.72;5118815;28;8847;-62
2022/06/22 02:36:51;;;;;;;;;5.00;5.00;;;;;14.08;62.62;99509.25;5117703;28;8970;-64
2022/06/22 02:39:18;;;;;;;;;6.50;5.00;;;;;14.07;62.67;99517.44;5117051;28;8830;-62
2022/06/22 02:44:32;;;;;;;;;9.00;7.00;;;;;14.00;62.58;99521.72;5117811;28;8813;-62
2022/06/22 02:46:59;;;;;;;;;6.75;5.50;;;;;13.98;62.21;99529.09;5119136;28;8920;-64
2022/06/22 02:49:28;;;;;;;;;6.75;6.25;;;;;13.95;62.54;99532.03;5118512;28;8828;-62
2022/06/22 02:51:55;;;;;;;;;8.00;8.00;;;;;13.89;62.95;99530.00;5118496;28;8850;-62
2022/06/22 02:54:23;;;;;;;;;6.75;6.00;;;;;13.83;63.11;99525.25;5119378;28;8836;-63
2022/06/22 02:56:51;;;;;;;;;7.50;6.00;;;;;13.75;62.86;99528.69;5118961;28;8853;-63
2022/06/22 02:59:20;;;;;;;;;5.50;5.50;;;;;13.66;63.04;99523.41;5099871;28;8964;-62
2022/06/22 03:01:47;;;;;;;;;4.50;4.00;;;;;13.57;62.98;99514.47;5098612;28;8845;-63
2022/06/22 03:04:15;;;;;;;;;7.00;6.00;;;;;13.50;63.21;99512.53;5098188;28;8832;-63
2022/06/22 03:06:43;;;;;;;;;3.25;3.25;;;;;13.44;63.50;99502.44;5098415;28;9530;-63
2022/06/22 03:09:11;;;;;;;;;6.50;6.25;;;;;13.39;63.96;99502.06;5114996;28;8812;-63
2022/06/22 03:11:39;;;;;;;;;4.25;3.75;;;;;13.35;63.77;99500.69;5118868;28;8882;-63
2022/06/22 03:14:07;;;;;;;;;5.00;5.00;;;;;13.30;63.56;99492.25;5117470;28;8838;-62
2022/06/22 03:16:35;;;;;;;;;7.50;7.00;;;;;13.24;63.87;99495.53;5118425;28;8828;-62
2022/06/22 03:19:03;;;;;;;;;4.50;4.00;;;;;13.18;63.86;99482.75;5102317;28;8837;-62
2022/06/22 03:21:31;;;;;;;;;4.00;4.00;;;;;13.14;64.14;99481.38;5095924;28;8829;-64
2022/06/22 03:23:59;;;;;;;;;6.00;4.50;;;;;13.09;63.98;99491.66;5097573;28;8844;-63
2022/06/22 03:26:27;;;;;;;;;5.00;5.00;;;;;13.03;64.01;99508.28;5097898;28;8842;-63
2022/06/22 03:28:55;;;;;;;;;4.50;4.50;;;;;12.96;64.47;99512.53;5111834;28;8816;-63
2022/06/22 03:31:22;;;;;;;;;5.50;5.50;;;;;12.92;64.33;99524.50;5118528;28;8831;-63
2022/06/22 03:33:50;;;;;;;;;6.00;6.00;;;;;12.88;64.73;99526.63;5118621;28;8838;-64
2022/06/22 03:36:18;;;;;;;;;11.50;7.00;;;;;12.84;64.90;99529.75;5117971;28;8966;-63
2022/06/22 03:38:46;;;;;;;;;4.00;3.50;;;;;12.82;64.75;99535.22;5104883;28;8814;-63
2022/06/22 03:41:13;;;;;;;;;6.00;6.00;;;;;12.83;64.83;99526.22;5097719;28;8846;-63
2022/06/22 03:43:41;;;;;;;;;4.00;4.00;;;;;12.87;64.56;99518.75;5097570;28;8825;-63
2022/06/22 03:46:09;;;;;;;;;5.00;4.00;;;;;12.95;64.31;99516.22;5115250;28;8848;-62
2022/06/22 03:48:37;;;;;;;;;6.00;6.00;;;;;13.02;64.51;99512.81;5118063;28;8828;-63
2022/06/22 03:51:05;;;;;;;;;7.00;7.00;;;;;13.11;63.86;99501.22;5117367;28;8828;-63
2022/06/22 03:53:33;;;;;;;;;6.75;6.50;;;;;13.21;63.65;99482.47;5117651;28;8824;-64
2022/06/22 03:56:01;;;;;;;;;3.50;3.00;;;;;13.32;63.37;99492.94;5100832;28;8822;-63
2022/06/22 03:58:30;;;;;;;;;5.00;5.00;;;;;13.41;63.47;99498.22;5097265;28;8846;-63
2022/06/22 04:00:58;;;;;;;;;4.00;4.00;;;;;13.51;63.29;99496.31;5097774;28;8880;-63
2022/06/22 04:03:26;;;;;;;;;6.25;6.25;;;;;13.63;62.74;99486.25;5097716;28;8845;-63
2022/06/22 04:05:54;;;;;;;;;7.00;6.50;;;;;13.76;62.96;99489.38;5112064;28;8808;-63
2022/06/22 04:08:22;;;;;;;;;4.75;4.75;;;;;13.88;62.58;99499.72;5117113;28;8917;-63
2022/06/22 04:10:50;;;;;;;;;6.50;5.50;;;;;13.99;62.78;99502.16;5108615;28;8834;-64
2022/06/22 04:13:18;;;;;;;;;9.00;7.00;;;;;14.11;62.16;99476.00;5097138;28;8852;-63
2022/06/22 04:15:46;;;;;;;;;6.00;5.50;;;;;14.23;61.96;99488.16;5110621;28;9477;-63
2022/06/22 04:18:14;;;;;;;;;7.25;6.25;;;;;14.35;62.25;99485.03;5117227;28;8971;-65
2022/06/22 04:20:51;;;;;;;;;6.00;6.00;;;;;14.48;61.35;99496.19;5116922;28;9069;-64
2022/06/22 04:23:19;;;;;;;;;4.75;4.75;;;;;14.59;61.42;99490.59;5117452;28;8848;-65
2022/06/22 04:25:47;;;;;;;;;8.50;8.00;;;;;14.66;61.07;99490.78;5102147;28;8814;-63
2022/06/22 04:28:15;;;;;;;;;7.00;6.75;;;;;14.68;61.11;99496.81;5096407;28;8854;-65
2022/06/22 04:30:43;;;;;;;;;15.00;13.00;;;;;14.71;61.18;99491.16;5095945;28;8868;-64
2022/06/22 04:33:10;;;;;;;;;9.00;8.50;;;;;14.70;61.32;99486.78;5095978;28;8951;-65
2022/06/22 04:35:39;;;;;;;;;11.00;10.00;;;;;14.69;61.37;99488.63;5108313;28;8846;-64
2022/06/22 04:38:06;;;;;;;;;10.50;9.75;;;;;14.71;61.10;99494.66;5116375;28;8942;-65
2022/06/22 04:40:34;;;;;;;;;18.50;16.50;;;;;14.74;61.20;99496.19;5116788;28;8828;-64
2022/06/22 04:43:02;;;;;;;;;16.75;15.00;;;;;14.80;61.14;99493.69;5116453;28;8990;-64
2022/06/22 04:45:30;;;;;;;;;17.50;14.50;;;;;14.81;61.17;99492.69;5104894;28;8885;-64
2022/06/22 04:47:58;;;;;;;;;16.25;15.25;;;;;14.86;61.02;99493.06;5095345;28;8834;-63
2022/06/22 04:50:26;;;;;;;;;17.25;13.00;;;;;14.93;60.97;99491.44;5095240;28;8826;-63
2022/06/22 04:52:55;;;;;;;;;18.75;15.75;;;;;15.03;60.97;99494.00;5095647;28;8922;-63
2022/06/22 04:55:23;;;;;;;;;11.00;8.00;;;;;15.17;60.65;99488.03;5104392;28;9829;-63
2022/06/22 04:57:50;;;;;;;;;9.00;9.00;;;;;15.30;60.34;99499.13;5115203;28;8994;-63
2022/06/22 05:00:21;;;;;;;;;19.25;17.00;;;;;15.40;60.45;99506.06;5115035;28;8816;-64
2022/06/22 05:02:49;;;;;;;;;12.25;10.50;;;;;15.45;59.93;99502.88;5114967;28;8978;-63
2022/06/22 05:05:17;;;;;;;;;20.00;19.00;;;;;15.47;59.72;99496.34;5094639;28;8826;-63
2022/06/22 05:07:44;;;;;;;;;19.25;19.25;;;;;15.49;59.82;99498.88;5094898;28;9490;-63
2022/06/22 05:10:13;;;;;;;;;25.75;22.25;;;;;15.55;60.26;99508.97;5095401;28;8826;-64
2022/06/22 05:12:40;;;;;;;;;24.00;21.50;;;;;15.58;60.00;99514.84;5095424;28;8835;-63
2022/06/22 05:15:08;;;;;;;;;27.25;24.25;;;;;15.62;59.66;99516.19;5113460;28;8822;-63
2022/06/22 05:17:36;;;;;;;;;26.50;24.25;;;;;15.68;59.58;99515.53;5115116;28;8858;-63
2022/06/22 05:20:04;;;;;;;;;23.75;20.50;;;;;15.71;59.62;99515.19;5114818;28;9653;-63
2022/06/22 05:22:32;;;;;;;;;24.25;22.00;;;;;15.76;59.52;99522.78;5114799;28;8868;-64
2022/06/22 05:25:00;;;;;;;;;23.25;21.25;;;;;15.84;59.76;99536.22;5114563;28;8920;-63
2022/06/22 05:27:28;;;;;;;;;18.00;15.50;;;;;15.96;59.22;99532.19;5113228;28;8835;-63
2022/06/22 05:29:55;;;;;;;;;20.00;18.25;;;;;16.09;59.38;99537.94;5111883;28;8828;-63
2022/06/22 05:32:23;;;;;;;;;9.00;7.00;;;;;16.22;59.20;99549.03;5110922;28;8819;-63
2022/06/22 05:34:52;;;;;;;;;12.75;12.00;;;;;16.37;58.88;99550.91;5112021;28;8870;-63
2022/06/22 05:37:20;;;;;;;;;16.00;13.50;;;;;16.54;58.18;99547.19;5112925;28;9180;-63
2022/06/22 05:39:47;;;;;;;;;12.25;11.75;;;;;16.75;58.04;99539.44;5112619;28;8820;-63
2022/06/22 05:42:15;;;;;;;;;13.75;12.75;;;;;16.96;57.84;99537.91;5112890;28;8846;-65
2022/06/22 05:44:43;;;;;;;;;11.00;11.00;;;;;17.21;56.90;99541.31;5113960;28;8820;-64
2022/06/22 05:47:11;;;;;;;;;11.50;8.00;;;;;17.39;57.02;99545.50;5113101;28;8871;-64
2022/06/22 05:49:39;;;;;;;;;13.00;12.25;;;;;17.59;56.46;99541.38;5113935;28;8875;-64
2022/06/22 05:52:07;;;;;;;;;11.50;9.75;;;;;17.77;56.47;99541.94;5113679;28;8843;-65
2022/06/22 05:54:35;;;;;;;;;15.50;12.75;;;;;17.94;56.16;99540.84;5112216;28;8942;-63
2022/06/22 05:57:03;;;;;;;;;12.50;12.00;;;;;18.11;56.03;99550.47;5111288;28;8808;-63
2022/06/22 05:59:31;;;;;;;;;10.50;10.25;;;;;18.27;55.38;99553.06;5110797;28;8855;-64
2022/06/22 06:01:59;;;;;;;;;10.00;9.00;;;;;18.43;55.42;99558.34;5111313;28;8839;-64
2022/06/22 06:04:26;;;;;;;;;10.00;10.00;;;;;18.55;54.87;99559.59;5109166;28;9298;-63
2022/06/22 06:06:55;;;;;;;;;9.00;7.40;;;;;18.68;54.80;99556.28;5110672;28;8831;-63
2022/06/22 06:09:23;;;;;;;;;11.20;10.80;;;;;18.81;54.69;99556.50;5109827;28;8836;-65
2022/06/22 06:11:50;;;;;;;;;11.00;10.20;;;;;18.92;54.88;99567.69;5108725;28;8844;-64
2022/06/22 06:14:19;;;;;;;;;11.60;10.00;;;;;19.00;54.57;99556.81;5110669;28;8874;-63
2022/06/22 06:16:47;;;;;;;;;12.80;10.00;;;;;19.08;54.52;99553.16;5111022;28;8839;-62
2022/06/22 06:19:15;;;;;;;;;11.00;11.00;;;;;19.15;54.53;99562.19;5110522;28;8850;-64
2022/06/22 06:21:43;;;;;;;;;9.60;9.60;;;;;19.20;54.79;99555.25;5112495;28;8847;-63
2022/06/22 06:24:10;;;;;;;;;2.00;1.00;;;;;19.24;54.22;99569.22;5112509;28;8828;-63
2022/06/22 06:29:23;;;;;;;;;8.80;8.80;;;;;19.38;54.59;99563.81;5111517;28;8989;-64
2022/06/22 06:31:51;;;;;;;;;10.00;9.20;;;;;19.48;54.44;99566.22;5111813;28;8850;-64
2022/06/22 06:34:19;;;;;;;;;7.40;7.00;;;;;19.57;54.62;99568.63;5110929;28;8946;-64
2022/06/22 06:36:47;;;;;;;;;9.80;8.80;;;;;19.69;53.57;99552.78;5110514;28;8835;-65
2022/06/22 06:39:15;;;;;;;;;8.40;8.00;;;;;19.82;53.66;99559.22;5109888;28;8831;-66
2022/06/22 06:41:43;;;;;;;;;8.00;8.00;;;;;19.89;53.52;99549.28;5110583;28;8863;-64
2022/06/22 06:44:11;;;;;;;;;10.40;10.40;;;;;19.97;53.79;99551.91;5112640;28;8840;-64
2022/06/22 06:46:39;;;;;;;;;9.60;9.60;;;;;20.06;53.52;99555.34;5112234;28;8949;-64
2022/06/22 06:49:07;;;;;;;;;6.60;5.00;;;;;20.16;53.75;99547.75;5112871;28;8840;-64
2022/06/22 06:51:35;;;;;;;;;7.00;6.20;;;;;20.22;53.17;99542.41;5111468;28;8839;-62
2022/06/22 06:54:06;;;;;;;;;8.00;7.00;;;;;20.24;53.03;99540.34;5113071;28;8820;-61
2022/06/22 06:56:33;;;;;;;;;10.40;9.20;;;;;20.27;53.76;99548.09;5113823;28;8847;-62
2022/06/22 06:59:01;;;;;;;;;7.40;7.00;;;;;20.37;53.54;99548.59;5115591;28;8828;-61
2022/06/22 07:01:29;;;;;;;;;11.60;10.40;;;;;20.48;53.46;99542.66;5117108;28;8843;-62
2022/06/22 07:03:58;;;;;;;;;7.00;7.00;;;;;20.62;52.67;99539.03;5117005;28;8843;-61
2022/06/22 07:06:26;;;;;;;;;7.60;7.60;;;;;20.76;52.23;99543.53;5117218;28;8847;-61
2022/06/22 07:08:54;;;;;;;;;7.40;7.20;;;;;20.88;52.19;99536.56;5117041;28;8836;-62
2022/06/22 07:11:22;;;;;;;;;9.80;9.80;;;;;20.99;52.52;99527.88;5116106;28;8848;-61
2022/06/22 07:13:59;;;;;;;;;5.80;5.80;;;;;21.10;52.18;99530.06;5116000;28;8831;-64
2022/06/22 07:16:27;;;;;;;;;8.80;8.40;;;;;21.18;52.23;99529.91;5115562;28;8950;-64
2022/06/22 07:18:54;;;;;;;;;8.60;7.60;;;;;21.26;52.06;99518.91;5115943;28;8847;-61
2022/06/22 07:21:22;;;;;;;;;8.80;8.20;;;;;21.35;51.47;99521.22;5116152;28;8972;-62
2022/06/22 07:23:50;;;;;;;;;8.80;8.00;;;;;21.46;51.62;99519.81;5116587;28;8843;-65
2022/06/22 07:26:19;;;;;;;;;8.40;7.80;;;;;21.54;51.41;99506.94;5116376;28;8847;-64
2022/06/22 07:28:48;;;;;;;;;8.60;7.80;;;;;21.64;51.51;99509.28;5116031;28;8839;-64
2022/06/22 07:31:16;;;;;;;;;9.00;8.60;;;;;21.72;51.41;99501.81;5115643;28;8839;-64
2022/06/22 07:33:44;;;;;;;;;8.80;8.80;;;;;21.80;51.27;99504.34;5115327;28;8832;-64
2022/06/22 07:36:12;;;;;;;;;2.00;2.00;;;;;21.89;51.70;99499.56;5115334;28;8989;-64
2022/06/22 07:38:42;;;;;;;;;8.00;8.00;;;;;21.97;51.04;99491.25;5114740;28;8828;-65
2022/06/22 07:41:23;;;;;;;;;8.00;8.00;;;;;22.10;51.26;99502.13;5114032;28;8819;-64
2022/06/22 07:43:51;;;;;;;;;9.00;9.00;;;;;22.21;50.65;99498.81;5115010;28;8824;-64
2022/06/22 07:46:19;;;;;;;;;14.40;11.60;;;;;22.25;51.31;99494.66;5115007;28;8839;-64
2022/06/22 07:48:47;;;;;;;;;12.00;11.20;;;;;22.29;51.10;99485.03;5112667;28;8939;-64
2022/06/22 07:51:15;;;;;;;;;9.60;9.60;;;;;22.37;51.29;99491.09;5111785;28;8916;-64
2022/06/22 07:53:44;;;;;;;;;12.20;10.80;;;;;22.45;51.08;99484.66;5113057;28;8827;-64
2022/06/22 07:56:12;;;;;;;;;8.00;7.60;;;;;22.52;50.96;99490.91;5114431;28;9608;-65
2022/06/22 07:58:40;;;;;;;;;4.40;4.40;;;;;22.59;50.86;99498.03;5112973;28;8832;-64
2022/06/22 08:01:08;;;;;;;;;8.80;7.20;;;;;;;;5113499;28;8843;-62
2022/06/22 08:03:36;;;;;;;;;5.00;5.00;;;;;22.76;50.50;99495.72;5113729;28;8820;-62
2022/06/22 08:06:04;;;;;;;;;8.00;8.00;;;;;22.84;50.49;99496.31;5113619;28;8974;-62
2022/06/22 08:08:31;;;;;;;;;6.40;6.40;;;;;22.92;50.42;99498.00;5113175;28;9010;-62
2022/06/22 08:10:59;;;;;;;;;7.60;6.80;;;;;23.00;49.95;99492.34;5113200;28;8950;-62
2022/06/22 08:13:27;;;;;;;;;6.80;6.00;;;;;23.08;49.71;99492.94;5113535;28;8831;-62
2022/06/22 08:15:55;;;;;;;;;6.00;6.00;;;;;23.12;49.44;99496.06;5114371;28;8828;-61
2022/06/22 08:18:23;;;;;;;;;8.80;7.00;;;;;23.14;49.77;99492.09;5115159;28;8998;-62
2022/06/22 08:20:51;;;;;;;;;6.00;6.00;;;;;23.21;49.59;99497.56;5114124;28;8974;-62
2022/06/22 08:23:19;;;;;;;;;5.80;5.80;;;;;23.29;49.66;99505.47;5114612;28;8862;-62
2022/06/22 08:26:02;;;;;;;;;5.60;5.60;;;;;23.38;49.23;99504.19;5113588;28;8844;-64
2022/06/22 08:28:30;;;;;;;;;6.40;6.00;;;;;23.42;49.39;99510.84;5113849;28;8886;-64
2022/06/22 08:30:58;;;;;;;;;5.80;5.40;;;;;23.51;49.47;99504.16;5113359;28;8820;-64
2022/06/22 08:33:27;;;;;;;;;7.20;7.20;;;;;23.60;49.40;99513.72;5112414;28;8824;-63
2022/06/22 08:35:54;;;;;;;;;5.00;5.00;;;;;23.69;48.63;99507.00;5112117;28;8896;-62
2022/06/22 08:38:24;;;;;;;;;6.00;5.60;;;;;23.76;48.55;99514.06;5112167;28;8978;-62
2022/06/22 08:40:52;;;;;;;;;6.00;6.00;;;;;23.85;48.83;99511.94;5111609;28;8904;-62
2022/06/22 08:43:20;;;;;;;;;5.60;5.00;;;;;23.90;48.34;99510.25;5112602;28;9607;-61
2022/06/22 08:45:48;;;;;;;;;5.00;5.00;;;;;23.96;48.57;99501.22;5112939;28;8993;-61
2022/06/22 08:48:16;;;;;;;;;5.80;5.20;;;;;24.08;48.49;99512.25;5113372;28;9139;-62
2022/06/22 08:50:44;;;;;;;;;5.40;5.40;;;;;24.17;48.04;99509.06;5112256;28;8846;-62
2022/06/22 08:53:11;;;;;;;;;5.80;5.00;;;;;24.26;48.15;99515.06;5111727;28;8835;-61
2022/06/22 08:55:40;;;;;;;;;4.60;3.80;;;;;24.36;47.71;99523.59;5111994;28;8835;-61
2022/06/22 08:58:08;;;;;;;;;5.00;4.60;;;;;24.47;47.37;99507.38;5110839;28;9260;-62
2022/06/22 09:00:56;;;;;;;;;6.80;6.60;;;;;24.59;47.15;99504.78;5111201;28;8848;-62
2022/06/22 09:03:24;;;;;;;;;5.00;5.00;;;;;24.65;47.24;99510.19;5110004;28;8815;-61
2022/06/22 09:05:52;;;;;;;;;3.80;3.40;;;;;24.75;46.72;99505.09;5109226;28;8856;-61
2022/06/22 09:08:20;;;;;;;;;3.00;3.00;;;;;24.91;46.25;99503.66;5110575;28;9462;-62
2022/06/22 09:10:48;;;;;;;;;5.20;3.80;;;;;25.04;46.60;99498.09;5108728;28;8844;-61
2022/06/22 09:13:16;;;;;;;;;5.00;5.00;;;;;25.12;45.93;99500.50;5109215;28;8851;-61
2022/06/22 09:15:44;;;;;;;;;2.80;2.60;;;;;25.21;46.54;99505.47;5110353;28;8917;-61
2022/06/22 09:18:12;;;;;;;;;5.00;5.00;;;;;25.31;46.07;99516.69;5112413;28;8932;-62
2022/06/22 09:20:39;;;;;;;;;5.00;5.00;;;;;25.41;45.70;99514.25;5111764;28;8847;-62
2022/06/22 09:23:08;;;;;;;;;6.40;5.80;;;;;25.55;45.79;99521.22;5112887;28;8832;-62
2022/06/22 09:25:35;;;;;;;;;6.40;6.40;;;;;25.61;45.50;99520.31;5112072;28;9189;-62
2022/06/22 09:28:03;;;;;;;;;4.00;4.00;;;;;25.71;45.09;99517.88;5110405;28;8815;-62
2022/06/22 09:30:31;;;;;;;;;5.00;4.80;;;;;25.85;45.11;99519.38;5110388;28;8985;-62
2022/06/22 09:33:00;;;;;;;;;5.60;5.60;;;;;26.00;44.54;99519.84;5110429;28;8840;-62
2022/06/22 09:35:27;;;;;;;;;6.40;6.00;;;;;26.08;44.21;99525.81;5110579;28;8966;-61
2022/06/22 09:37:55;;;;;;;;;4.80;4.20;;;;;26.15;44.56;99526.56;5110413;28;8831;-63
2022/06/22 09:40:24;;;;;;;;;4.20;4.20;;;;;26.27;44.01;99524.69;5109915;28;8842;-63
2022/06/22 09:42:54;;;;;;;;;5.60;5.60;;;;;26.42;43.85;99522.34;5111332;28;8848;-63
2022/06/22 09:45:21;;;;;;;;;6.60;6.00;;;;;26.53;43.79;99532.53;5110769;28;8851;-63
2022/06/22 09:47:50;;;;;;;;;4.00;4.00;;;;;26.63;43.86;99534.69;5111857;28;8964;-63
2022/06/22 09:50:17;;;;;;;;;3.00;3.00;;;;;26.70;43.55;99533.50;5110458;28;8881;-63
2022/06/22 09:52:45;;;;;;;;;1.60;1.60;;;;;26.80;43.11;99536.47;5111734;28;8851;-63
2022/06/22 09:57:59;;;;;;;;;4.40;4.40;;;;;27.08;42.90;99539.38;5110971;28;9565;-62
2022/06/22 10:00:27;;;;;;;;;4.00;4.00;;;;;27.16;42.65;99533.56;5111405;28;8823;-63
2022/06/22 10:02:54;;;;;;;;;6.00;6.00;;;;;27.33;42.04;99531.75;5111345;28;9668;-63
2022/06/22 10:05:23;;;;;;;;;4.60;4.00;;;;;27.60;42.30;99526.59;5111456;28;8824;-63
2022/06/22 10:07:50;;;;;;;;;4.00;4.00;;;;;27.91;41.04;99524.28;5110556;28;8843;-63
2022/06/22 10:10:18;;;;;;;;;3.20;3.20;;;;;28.26;40.87;99524.16;5110733;28;8831;-63
2022/06/22 10:12:46;;;;;;;;;4.00;4.00;;;;;28.53;39.89;99517.81;5110925;28;8840;-63
2022/06/22 10:15:14;;;;;;;;;3.80;3.80;;;;;28.76;39.63;99523.16;5109768;28;8855;-63
2022/06/22 10:17:42;;;;;;;;;4.00;4.00;;;;;29.03;39.19;99512.38;5108775;28;8949;-63
2022/06/22 10:20:29;;;;;;;;;1.40;1.40;;;;;29.35;39.05;99506.00;5111328;28;8816;-63
2022/06/22 10:22:59;;;;;;;;;4.00;3.80;;;;;29.69;38.46;99504.00;5110618;28;8828;-63
2022/06/22 10:25:27;;;;;;;;;4.20;4.20;;;;;30.08;37.77;99505.59;5110842;28;8954;-63
2022/06/22 10:27:55;;;;;;;;;4.00;4.00;;;;;30.40;37.64;99503.75;5112072;28;9022;-63
2022/06/22 10:30:23;;;;;;;;;4.00;3.60;;;;;30.71;37.04;99495.53;5111154;28;8960;-63
2022/06/22 10:32:51;;;;;;;;;4.00;4.00;;;;;31.02;37.35;99501.00;5114881;28;8973;-63
2022/06/22 10:35:19;;;;;;;;;3.80;3.00;;;;;31.40;36.28;99494.38;5116478;28;8838;-63
2022/06/22 10:37:49;;;;;;;;;3.80;3.80;;;;;31.75;36.14;99483.56;5115284;28;8844;-63
2022/06/22 10:45:08;;;;;;;;;4.00;4.00;;;;;32.09;35.60;99476.53;5115403;28;8945;-63
2022/06/22 10:45:51;;;;;;;;;2.00;2.00;;;;;32.67;35.51;99473.28;5111219;28;8924;-63
2022/06/22 10:48:19;;;;;;;;;5.20;4.60;;;;;32.86;35.29;99466.97;5111815;28;8880;-64
2022/06/22 10:50:46;;;;;;;;;5.00;5.00;;;;;33.03;35.45;99472.19;5112278;28;8859;-63
2022/06/22 10:53:15;;;;;;;;;5.00;4.60;;;;;33.06;34.79;99457.84;5111480;28;9509;-63
2022/06/22 10:55:43;;;;;;;;;4.60;4.60;;;;;33.25;34.59;99465.28;5112405;28;8839;-63
2022/06/22 10:58:10;;;;;;;;;5.20;5.00;;;;;33.45;34.13;99464.41;5115006;28;8839;-63
2022/06/22 11:00:38;;;;;;;;;4.00;4.00;;;;;33.64;34.73;99462.66;5114332;28;9538;-63
2022/06/22 11:03:08;;;;;;;;;5.80;5.80;;;;;33.88;33.82;99458.97;5114791;28;8855;-63
2022/06/22 11:05:36;;;;;;;;;5.60;5.00;;;;;34.17;34.06;99459.91;5113375;28;8835;-63
2022/06/22 11:08:04;;;;;;;;;5.00;5.00;;;;;34.50;33.71;99464.66;5113547;28;8848;-63
2022/06/22 11:10:32;;;;;;;;;5.00;4.60;;;;;34.62;33.06;99462.38;5114874;28;8954;-64
2022/06/22 11:13:00;;;;;;;;;5.20;5.20;;;;;34.66;32.89;99470.91;5114815;28;8936;-63
2022/06/22 11:15:28;;;;;;;;;6.40;6.00;;;;;34.75;33.12;99472.81;5114932;28;8831;-63
2022/06/22 11:17:55;;;;;;;;;5.00;4.20;;;;;34.86;33.00;99477.13;5115559;28;8969;-63
2022/06/22 11:20:24;;;;;;;;;5.00;5.00;;;;;34.95;32.99;99472.59;5114549;28;9142;-63
2022/06/22 11:22:52;;;;;;;;;5.80;5.80;;;;;35.09;32.89;99470.81;5114478;28;8858;-63
2022/06/22 11:30:48;;;;;;;;;5.80;5.00;;;;;35.25;32.18;99474.28;5113327;28;9623;-63
2022/06/22 11:30:55;;;;;;;;;5.20;5.00;;;;;35.56;32.05;99467.28;5112907;28;8935;-63
2022/06/22 11:33:23;;;;;;;;;4.40;4.20;;;;;35.62;31.86;99468.88;5113153;28;8866;-63
2022/06/22 11:35:51;;;;;;;;;7.00;6.00;;;;;35.77;31.41;99455.66;5112428;28;8977;-63
2022/06/22 11:38:19;;;;;;;;;5.00;4.80;;;;;35.82;32.31;99457.53;5114044;28;9511;-64
2022/06/22 11:40:46;;;;;;;;;5.00;4.20;;;;;35.97;31.61;99468.44;5113030;28;8840;-64
2022/06/22 11:43:14;;;;;;;;;4.40;4.40;;;;;36.08;31.02;99466.03;5111350;28;8858;-63
2022/06/22 11:45:51;;;;;;;;;5.00;4.80;;;;;36.16;31.23;99459.00;5113599;28;9574;-64
2022/06/22 11:48:19;;;;;;;;;4.80;4.80;;;;;36.20;30.83;99469.22;5113548;28;9517;-64
2022/06/22 11:50:47;;;;;;;;;4.40;4.40;;;;;36.23;30.98;99467.78;5113252;28;8824;-63
2022/06/22 11:53:15;;;;;;;;;5.20;5.20;;;;;36.25;30.92;99477.47;5112051;28;8874;-64
2022/06/22 11:55:43;;;;;;;;;4.20;4.00;;;;;36.34;30.67;99470.13;5112828;28;8853;-64
2022/06/22 11:58:11;;;;;;;;;4.20;4.20;;;;;36.59;30.37;99460.56;5113212;28;8943;-64
2022/06/22 12:00:39;;;;;;;;;4.80;4.20;;;;;36.74;30.67;99461.19;5112802;28;9517;-64